sensor_id;sensor_type;location;lat;lon;timestamp;P1;durP1;ratioP1;P2;durP2;ratioP2
79566;SDS011;69030;48.126;7.816;2023-04-10T00:00:57;6.60;;;4.95;;
79566;SDS011;69030;48.126;7.816;2023-04-10T00:03:22;7.97;;;5.05;;
79566;SDS011;69030;48.126;7.816;2023-04-10T00:05:48;7.97;;;5.20;;
79566;SDS011;69030;48.126;7.816;2023-04-10T00:08:14;7.90;;;4.82;;
79566;SDS011;69030;48.126;7.816;2023-04-10T00:10:39;12.07;;;7.85;;
79566;SDS011;69030;48.126;7.816;2023-04-10T00:13:05;6.78;;;5.93;;
79566;SDS011;69030;48.126;7.816;2023-04-10T00:15:30;7.78;;;5.38;;
79566;SDS011;69030;48.126;7.816;2023-04-10T00:17:56;7.63;;;5.68;;
79566;SDS011;69030;48.126;7.816;2023-04-10T00:20:21;8.45;;;5.10;;
79566;SDS011;69030;48.126;7.816;2023-04-10T00:22:47;8.23;;;7.05;;
79566;SDS011;69030;48.126;7.816;2023-04-10T00:25:13;7.40;;;4.63;;
79566;SDS011;69030;48.126;7.816;2023-04-10T00:27:38;7.40;;;5.15;;
79566;SDS011;69030;48.126;7.816;2023-04-10T00:30:04;6.18;;;5.22;;
79566;SDS011;69030;48.126;7.816;2023-04-10T00:32:30;6.80;;;4.55;;
79566;SDS011;69030;48.126;7.816;2023-04-10T00:34:56;6.03;;;5.43;;
79566;SDS011;69030;48.126;7.816;2023-04-10T00:37:21;6.57;;;4.82;;
79566;SDS011;69030;48.126;7.816;2023-04-10T00:39:46;6.38;;;4.78;;
79566;SDS011;69030;48.126;7.816;2023-04-10T00:42:12;6.68;;;4.35;;
79566;SDS011;69030;48.126;7.816;2023-04-10T00:44:37;8.30;;;5.15;;
79566;SDS011;69030;48.126;7.816;2023-04-10T00:47:03;5.43;;;3.97;;
79566;SDS011;69030;48.126;7.816;2023-04-10T00:49:29;6.15;;;4.82;;
79566;SDS011;69030;48.126;7.816;2023-04-10T00:51:55;5.53;;;4.32;;
79566;SDS011;69030;48.126;7.816;2023-04-10T00:54:21;5.40;;;4.78;;
79566;SDS011;69030;48.126;7.816;2023-04-10T00:56:47;5.22;;;4.70;;
79566;SDS011;69030;48.126;7.816;2023-04-10T00:59:13;5.03;;;3.97;;
79566;SDS011;69030;48.126;7.816;2023-04-10T01:01:39;8.02;;;6.30;;
79566;SDS011;69030;48.126;7.816;2023-04-10T01:04:05;10.77;;;8.98;;
79566;SDS011;69030;48.126;7.816;2023-04-10T01:06:43;11.20;;;8.35;;
79566;SDS011;69030;48.126;7.816;2023-04-10T01:14:29;14.15;;;8.73;;
79566;SDS011;69030;48.126;7.816;2023-04-10T01:17:05;9.25;;;7.40;;
79566;SDS011;69030;48.126;7.816;2023-04-10T01:22:19;9.23;;;6.57;;
79566;SDS011;69030;48.126;7.816;2023-04-10T01:30:05;9.13;;;7.10;;
79566;SDS011;69030;48.126;7.816;2023-04-10T01:32:33;10.23;;;7.20;;
79566;SDS011;69030;48.126;7.816;2023-04-10T01:34:59;8.60;;;6.13;;
79566;SDS011;69030;48.126;7.816;2023-04-10T01:37:29;8.93;;;6.78;;
79566;SDS011;69030;48.126;7.816;2023-04-10T01:39:59;9.30;;;5.50;;
79566;SDS011;69030;48.126;7.816;2023-04-10T01:42:29;9.90;;;6.57;;
79566;SDS011;69030;48.126;7.816;2023-04-10T01:44:55;9.75;;;6.75;;
79566;SDS011;69030;48.126;7.816;2023-04-10T01:47:21;7.35;;;5.90;;
79566;SDS011;69030;48.126;7.816;2023-04-10T01:49:48;9.02;;;5.03;;
79566;SDS011;69030;48.126;7.816;2023-04-10T01:52:14;9.30;;;5.95;;
79566;SDS011;69030;48.126;7.816;2023-04-10T01:54:40;7.70;;;5.68;;
79566;SDS011;69030;48.126;7.816;2023-04-10T01:57:07;8.43;;;7.03;;
79566;SDS011;69030;48.126;7.816;2023-04-10T01:59:34;7.38;;;6.68;;
79566;SDS011;69030;48.126;7.816;2023-04-10T02:02:00;8.32;;;5.80;;
79566;SDS011;69030;48.126;7.816;2023-04-10T02:04:25;9.77;;;5.32;;
79566;SDS011;69030;48.126;7.816;2023-04-10T02:06:56;8.98;;;5.88;;
79566;SDS011;69030;48.126;7.816;2023-04-10T02:12:15;7.20;;;5.53;;
79566;SDS011;69030;48.126;7.816;2023-04-10T02:17:09;6.65;;;5.20;;
79566;SDS011;69030;48.126;7.816;2023-04-10T02:19:38;7.18;;;5.40;;
79566;SDS011;69030;48.126;7.816;2023-04-10T02:22:04;8.30;;;5.75;;
79566;SDS011;69030;48.126;7.816;2023-04-10T02:24:30;8.82;;;5.80;;
79566;SDS011;69030;48.126;7.816;2023-04-10T02:26:56;6.20;;;4.15;;
79566;SDS011;69030;48.126;7.816;2023-04-10T02:29:21;7.28;;;5.43;;
79566;SDS011;69030;48.126;7.816;2023-04-10T02:31:47;7.20;;;3.65;;
79566;SDS011;69030;48.126;7.816;2023-04-10T02:34:12;7.93;;;5.90;;
79566;SDS011;69030;48.126;7.816;2023-04-10T02:36:38;8.02;;;4.97;;
79566;SDS011;69030;48.126;7.816;2023-04-10T02:39:04;7.57;;;5.25;;
79566;SDS011;69030;48.126;7.816;2023-04-10T02:41:30;8.00;;;5.07;;
79566;SDS011;69030;48.126;7.816;2023-04-10T02:43:55;5.72;;;4.00;;
79566;SDS011;69030;48.126;7.816;2023-04-10T02:46:21;5.70;;;4.15;;
79566;SDS011;69030;48.126;7.816;2023-04-10T02:48:46;5.80;;;4.10;;
79566;SDS011;69030;48.126;7.816;2023-04-10T02:51:12;6.00;;;5.20;;
79566;SDS011;69030;48.126;7.816;2023-04-10T02:53:38;5.35;;;3.97;;
79566;SDS011;69030;48.126;7.816;2023-04-10T02:56:03;7.43;;;5.38;;
79566;SDS011;69030;48.126;7.816;2023-04-10T02:58:30;5.65;;;4.07;;
79566;SDS011;69030;48.126;7.816;2023-04-10T03:00:56;6.35;;;5.18;;
79566;SDS011;69030;48.126;7.816;2023-04-10T03:03:22;4.82;;;4.05;;
79566;SDS011;69030;48.126;7.816;2023-04-10T03:05:47;6.45;;;4.80;;
79566;SDS011;69030;48.126;7.816;2023-04-10T03:08:13;5.93;;;5.32;;
79566;SDS011;69030;48.126;7.816;2023-04-10T03:10:39;4.78;;;2.47;;
79566;SDS011;69030;48.126;7.816;2023-04-10T03:13:07;6.47;;;5.72;;
79566;SDS011;69030;48.126;7.816;2023-04-10T03:15:33;8.43;;;3.88;;
79566;SDS011;69030;48.126;7.816;2023-04-10T03:17:58;6.68;;;5.53;;
79566;SDS011;69030;48.126;7.816;2023-04-10T03:20:24;7.57;;;6.85;;
79566;SDS011;69030;48.126;7.816;2023-04-10T03:22:49;4.93;;;3.95;;
79566;SDS011;69030;48.126;7.816;2023-04-10T03:25:15;7.78;;;4.88;;
79566;SDS011;69030;48.126;7.816;2023-04-10T03:27:40;6.57;;;5.82;;
79566;SDS011;69030;48.126;7.816;2023-04-10T03:30:06;5.78;;;4.72;;
79566;SDS011;69030;48.126;7.816;2023-04-10T03:32:32;7.55;;;5.50;;
79566;SDS011;69030;48.126;7.816;2023-04-10T03:34:57;8.30;;;4.47;;
79566;SDS011;69030;48.126;7.816;2023-04-10T03:37:23;6.50;;;4.72;;
79566;SDS011;69030;48.126;7.816;2023-04-10T03:39:49;4.40;;;3.83;;
79566;SDS011;69030;48.126;7.816;2023-04-10T03:42:14;6.00;;;4.10;;
79566;SDS011;69030;48.126;7.816;2023-04-10T03:44:40;6.53;;;4.78;;
79566;SDS011;69030;48.126;7.816;2023-04-10T03:47:05;6.18;;;3.03;;
79566;SDS011;69030;48.126;7.816;2023-04-10T03:49:30;5.50;;;4.57;;
79566;SDS011;69030;48.126;7.816;2023-04-10T03:51:56;7.40;;;5.22;;
79566;SDS011;69030;48.126;7.816;2023-04-10T03:54:21;7.03;;;6.32;;
79566;SDS011;69030;48.126;7.816;2023-04-10T03:56:46;6.30;;;4.90;;
79566;SDS011;69030;48.126;7.816;2023-04-10T03:59:12;5.30;;;4.13;;
79566;SDS011;69030;48.126;7.816;2023-04-10T04:01:37;6.43;;;5.72;;
79566;SDS011;69030;48.126;7.816;2023-04-10T04:04:03;6.25;;;5.15;;
79566;SDS011;69030;48.126;7.816;2023-04-10T04:06:29;6.40;;;5.15;;
79566;SDS011;69030;48.126;7.816;2023-04-10T04:08:55;5.97;;;4.28;;
79566;SDS011;69030;48.126;7.816;2023-04-10T04:11:20;7.03;;;4.15;;
79566;SDS011;69030;48.126;7.816;2023-04-10T04:13:46;7.78;;;5.80;;
79566;SDS011;69030;48.126;7.816;2023-04-10T04:16:11;6.75;;;4.88;;
79566;SDS011;69030;48.126;7.816;2023-04-10T04:18:37;6.28;;;4.88;;
79566;SDS011;69030;48.126;7.816;2023-04-10T04:21:02;8.10;;;5.63;;
79566;SDS011;69030;48.126;7.816;2023-04-10T04:23:28;6.40;;;5.20;;
79566;SDS011;69030;48.126;7.816;2023-04-10T04:25:53;6.53;;;5.10;;
79566;SDS011;69030;48.126;7.816;2023-04-10T04:28:21;7.47;;;4.03;;
79566;SDS011;69030;48.126;7.816;2023-04-10T04:30:46;6.85;;;5.18;;
79566;SDS011;69030;48.126;7.816;2023-04-10T04:33:12;5.15;;;3.47;;
79566;SDS011;69030;48.126;7.816;2023-04-10T04:35:37;5.63;;;4.07;;
79566;SDS011;69030;48.126;7.816;2023-04-10T04:38:02;7.00;;;5.55;;
79566;SDS011;69030;48.126;7.816;2023-04-10T04:40:28;6.40;;;4.80;;
79566;SDS011;69030;48.126;7.816;2023-04-10T04:42:53;7.03;;;6.18;;
79566;SDS011;69030;48.126;7.816;2023-04-10T04:45:19;6.60;;;3.85;;
79566;SDS011;69030;48.126;7.816;2023-04-10T04:47:45;7.28;;;4.80;;
79566;SDS011;69030;48.126;7.816;2023-04-10T04:50:11;6.53;;;5.03;;
79566;SDS011;69030;48.126;7.816;2023-04-10T04:52:36;6.97;;;5.30;;
79566;SDS011;69030;48.126;7.816;2023-04-10T04:55:02;7.80;;;6.13;;
79566;SDS011;69030;48.126;7.816;2023-04-10T04:57:27;6.85;;;5.60;;
79566;SDS011;69030;48.126;7.816;2023-04-10T04:59:53;9.07;;;5.70;;
79566;SDS011;69030;48.126;7.816;2023-04-10T05:02:18;8.35;;;5.43;;
79566;SDS011;69030;48.126;7.816;2023-04-10T05:04:46;7.13;;;4.90;;
79566;SDS011;69030;48.126;7.816;2023-04-10T05:07:12;6.35;;;5.28;;
79566;SDS011;69030;48.126;7.816;2023-04-10T05:09:37;7.10;;;4.35;;
79566;SDS011;69030;48.126;7.816;2023-04-10T05:12:03;7.45;;;5.43;;
79566;SDS011;69030;48.126;7.816;2023-04-10T05:14:28;7.57;;;5.50;;
79566;SDS011;69030;48.126;7.816;2023-04-10T05:16:53;8.75;;;6.70;;
79566;SDS011;69030;48.126;7.816;2023-04-10T05:19:19;7.47;;;5.78;;
79566;SDS011;69030;48.126;7.816;2023-04-10T05:21:44;6.90;;;5.18;;
79566;SDS011;69030;48.126;7.816;2023-04-10T05:24:10;8.25;;;5.40;;
79566;SDS011;69030;48.126;7.816;2023-04-10T05:26:35;8.10;;;5.97;;
79566;SDS011;69030;48.126;7.816;2023-04-10T05:29:01;10.57;;;7.25;;
79566;SDS011;69030;48.126;7.816;2023-04-10T05:31:26;7.95;;;5.65;;
79566;SDS011;69030;48.126;7.816;2023-04-10T05:33:52;9.23;;;6.15;;
79566;SDS011;69030;48.126;7.816;2023-04-10T05:36:17;8.05;;;5.05;;
79566;SDS011;69030;48.126;7.816;2023-04-10T05:38:42;5.38;;;4.43;;
79566;SDS011;69030;48.126;7.816;2023-04-10T05:41:08;7.65;;;5.70;;
79566;SDS011;69030;48.126;7.816;2023-04-10T05:43:33;6.60;;;5.35;;
79566;SDS011;69030;48.126;7.816;2023-04-10T05:45:59;4.72;;;4.03;;
79566;SDS011;69030;48.126;7.816;2023-04-10T05:48:24;9.18;;;7.53;;
79566;SDS011;69030;48.126;7.816;2023-04-10T05:50:50;8.38;;;4.75;;
79566;SDS011;69030;48.126;7.816;2023-04-10T05:53:17;7.88;;;6.20;;
79566;SDS011;69030;48.126;7.816;2023-04-10T05:55:43;9.25;;;6.43;;
79566;SDS011;69030;48.126;7.816;2023-04-10T05:58:08;7.72;;;5.60;;
79566;SDS011;69030;48.126;7.816;2023-04-10T06:00:34;7.60;;;5.35;;
79566;SDS011;69030;48.126;7.816;2023-04-10T06:02:59;7.43;;;5.85;;
79566;SDS011;69030;48.126;7.816;2023-04-10T06:05:25;6.07;;;5.22;;
79566;SDS011;69030;48.126;7.816;2023-04-10T06:07:51;6.90;;;5.30;;
79566;SDS011;69030;48.126;7.816;2023-04-10T06:10:17;5.85;;;5.10;;
79566;SDS011;69030;48.126;7.816;2023-04-10T06:12:42;7.60;;;6.72;;
79566;SDS011;69030;48.126;7.816;2023-04-10T06:15:08;7.93;;;6.47;;
79566;SDS011;69030;48.126;7.816;2023-04-10T06:17:33;8.25;;;7.05;;
79566;SDS011;69030;48.126;7.816;2023-04-10T06:20:01;9.23;;;7.40;;
79566;SDS011;69030;48.126;7.816;2023-04-10T06:22:28;6.50;;;5.93;;
79566;SDS011;69030;48.126;7.816;2023-04-10T06:24:54;7.85;;;6.03;;
79566;SDS011;69030;48.126;7.816;2023-04-10T06:27:19;6.03;;;5.43;;
79566;SDS011;69030;48.126;7.816;2023-04-10T06:29:44;6.75;;;6.13;;
79566;SDS011;69030;48.126;7.816;2023-04-10T06:32:10;9.75;;;8.50;;
79566;SDS011;69030;48.126;7.816;2023-04-10T06:34:35;8.02;;;7.00;;
79566;SDS011;69030;48.126;7.816;2023-04-10T06:37:00;8.63;;;7.10;;
79566;SDS011;69030;48.126;7.816;2023-04-10T06:39:26;7.95;;;6.60;;
79566;SDS011;69030;48.126;7.816;2023-04-10T06:41:51;8.98;;;8.05;;
79566;SDS011;69030;48.126;7.816;2023-04-10T06:44:16;8.57;;;6.88;;
79566;SDS011;69030;48.126;7.816;2023-04-10T06:46:42;6.82;;;6.10;;
79566;SDS011;69030;48.126;7.816;2023-04-10T06:49:10;5.00;;;3.90;;
79566;SDS011;69030;48.126;7.816;2023-04-10T06:51:35;6.28;;;5.55;;
79566;SDS011;69030;48.126;7.816;2023-04-10T06:54:01;5.88;;;5.28;;
79566;SDS011;69030;48.126;7.816;2023-04-10T06:56:26;6.25;;;5.55;;
79566;SDS011;69030;48.126;7.816;2023-04-10T06:58:52;6.75;;;6.10;;
79566;SDS011;69030;48.126;7.816;2023-04-10T07:01:17;6.35;;;4.57;;
79566;SDS011;69030;48.126;7.816;2023-04-10T07:03:43;5.25;;;4.68;;
79566;SDS011;69030;48.126;7.816;2023-04-10T07:06:09;6.68;;;5.63;;
79566;SDS011;69030;48.126;7.816;2023-04-10T07:08:35;5.93;;;5.43;;
79566;SDS011;69030;48.126;7.816;2023-04-10T07:11:00;6.78;;;5.90;;
79566;SDS011;69030;48.126;7.816;2023-04-10T07:13:26;9.48;;;5.57;;
79566;SDS011;69030;48.126;7.816;2023-04-10T07:15:51;7.25;;;6.22;;
79566;SDS011;69030;48.126;7.816;2023-04-10T07:18:16;5.68;;;4.40;;
79566;SDS011;69030;48.126;7.816;2023-04-10T07:20:42;10.13;;;6.57;;
79566;SDS011;69030;48.126;7.816;2023-04-10T07:23:07;5.88;;;4.63;;
79566;SDS011;69030;48.126;7.816;2023-04-10T07:25:32;8.88;;;6.05;;
79566;SDS011;69030;48.126;7.816;2023-04-10T07:27:58;6.50;;;4.40;;
79566;SDS011;69030;48.126;7.816;2023-04-10T07:30:23;4.88;;;4.10;;
79566;SDS011;69030;48.126;7.816;2023-04-10T07:32:49;6.13;;;4.63;;
79566;SDS011;69030;48.126;7.816;2023-04-10T07:35:14;7.60;;;5.53;;
79566;SDS011;69030;48.126;7.816;2023-04-10T07:37:40;6.43;;;4.50;;
79566;SDS011;69030;48.126;7.816;2023-04-10T07:40:08;5.05;;;4.15;;
79566;SDS011;69030;48.126;7.816;2023-04-10T07:42:33;6.70;;;4.80;;
79566;SDS011;69030;48.126;7.816;2023-04-10T07:44:59;6.78;;;5.53;;
79566;SDS011;69030;48.126;7.816;2023-04-10T07:47:24;6.22;;;5.45;;
79566;SDS011;69030;48.126;7.816;2023-04-10T07:49:50;4.97;;;4.45;;
79566;SDS011;69030;48.126;7.816;2023-04-10T07:52:15;6.93;;;5.50;;
79566;SDS011;69030;48.126;7.816;2023-04-10T07:54:41;5.88;;;4.35;;
79566;SDS011;69030;48.126;7.816;2023-04-10T07:57:06;5.53;;;4.32;;
79566;SDS011;69030;48.126;7.816;2023-04-10T07:59:31;7.20;;;5.90;;
79566;SDS011;69030;48.126;7.816;2023-04-10T08:01:57;4.53;;;3.83;;
79566;SDS011;69030;48.126;7.816;2023-04-10T08:04:22;5.43;;;3.45;;
79566;SDS011;69030;48.126;7.816;2023-04-10T08:06:47;5.57;;;4.47;;
79566;SDS011;69030;48.126;7.816;2023-04-10T08:09:14;7.28;;;5.13;;
79566;SDS011;69030;48.126;7.816;2023-04-10T08:11:39;4.90;;;3.03;;
79566;SDS011;69030;48.126;7.816;2023-04-10T08:14:04;5.90;;;4.68;;
79566;SDS011;69030;48.126;7.816;2023-04-10T08:16:31;4.78;;;3.63;;
79566;SDS011;69030;48.126;7.816;2023-04-10T08:18:58;5.32;;;4.63;;
79566;SDS011;69030;48.126;7.816;2023-04-10T08:21:25;5.22;;;4.68;;
79566;SDS011;69030;48.126;7.816;2023-04-10T08:23:55;4.85;;;4.20;;
79566;SDS011;69030;48.126;7.816;2023-04-10T08:26:24;5.05;;;4.38;;
79566;SDS011;69030;48.126;7.816;2023-04-10T08:28:51;10.23;;;4.65;;
79566;SDS011;69030;48.126;7.816;2023-04-10T08:31:17;4.82;;;4.07;;
79566;SDS011;69030;48.126;7.816;2023-04-10T08:33:43;5.97;;;4.20;;
79566;SDS011;69030;48.126;7.816;2023-04-10T08:36:10;5.80;;;3.90;;
79566;SDS011;69030;48.126;7.816;2023-04-10T08:38:36;6.28;;;5.57;;
79566;SDS011;69030;48.126;7.816;2023-04-10T08:41:02;6.70;;;5.93;;
79566;SDS011;69030;48.126;7.816;2023-04-10T08:43:27;4.68;;;3.53;;
79566;SDS011;69030;48.126;7.816;2023-04-10T08:45:53;4.82;;;3.80;;
79566;SDS011;69030;48.126;7.816;2023-04-10T08:48:20;4.63;;;4.07;;
79566;SDS011;69030;48.126;7.816;2023-04-10T08:50:45;5.07;;;4.57;;
79566;SDS011;69030;48.126;7.816;2023-04-10T08:53:12;4.47;;;3.92;;
79566;SDS011;69030;48.126;7.816;2023-04-10T08:55:39;5.93;;;3.45;;
79566;SDS011;69030;48.126;7.816;2023-04-10T08:58:05;4.13;;;3.70;;
79566;SDS011;69030;48.126;7.816;2023-04-10T09:00:34;4.85;;;3.58;;
79566;SDS011;69030;48.126;7.816;2023-04-10T09:03:02;4.43;;;3.50;;
79566;SDS011;69030;48.126;7.816;2023-04-10T09:05:35;5.28;;;4.75;;
79566;SDS011;69030;48.126;7.816;2023-04-10T09:08:02;4.85;;;4.13;;
79566;SDS011;69030;48.126;7.816;2023-04-10T09:10:28;4.07;;;3.53;;
79566;SDS011;69030;48.126;7.816;2023-04-10T09:12:53;3.90;;;3.60;;
79566;SDS011;69030;48.126;7.816;2023-04-10T09:15:18;3.88;;;3.47;;
79566;SDS011;69030;48.126;7.816;2023-04-10T09:17:53;4.20;;;3.80;;
79566;SDS011;69030;48.126;7.816;2023-04-10T09:20:27;4.28;;;3.40;;
79566;SDS011;69030;48.126;7.816;2023-04-10T09:22:53;5.18;;;4.15;;
79566;SDS011;69030;48.126;7.816;2023-04-10T09:25:36;4.70;;;3.63;;
79566;SDS011;69030;48.126;7.816;2023-04-10T09:28:05;4.03;;;3.63;;
79566;SDS011;69030;48.126;7.816;2023-04-10T09:30:32;5.72;;;4.15;;
79566;SDS011;69030;48.126;7.816;2023-04-10T09:32:59;4.97;;;3.95;;
79566;SDS011;69030;48.126;7.816;2023-04-10T09:35:33;5.35;;;4.85;;
79566;SDS011;69030;48.126;7.816;2023-04-10T09:37:59;3.80;;;3.50;;
79566;SDS011;69030;48.126;7.816;2023-04-10T09:40:25;6.78;;;6.28;;
79566;SDS011;69030;48.126;7.816;2023-04-10T09:42:52;4.45;;;3.70;;
79566;SDS011;69030;48.126;7.816;2023-04-10T09:45:17;3.67;;;3.33;;
79566;SDS011;69030;48.126;7.816;2023-04-10T09:48:00;4.88;;;4.38;;
79566;SDS011;69030;48.126;7.816;2023-04-10T09:50:35;3.97;;;3.45;;
79566;SDS011;69030;48.126;7.816;2023-04-10T09:53:01;6.25;;;4.15;;
79566;SDS011;69030;48.126;7.816;2023-04-10T09:55:26;5.00;;;3.78;;
79566;SDS011;69030;48.126;7.816;2023-04-10T09:57:52;4.82;;;3.95;;
79566;SDS011;69030;48.126;7.816;2023-04-10T10:00:17;5.20;;;3.65;;
79566;SDS011;69030;48.126;7.816;2023-04-10T10:02:43;2.90;;;2.53;;
79566;SDS011;69030;48.126;7.816;2023-04-10T10:05:09;4.18;;;3.28;;
79566;SDS011;69030;48.126;7.816;2023-04-10T10:07:35;3.95;;;3.08;;
79566;SDS011;69030;48.126;7.816;2023-04-10T10:10:01;4.05;;;3.45;;
79566;SDS011;69030;48.126;7.816;2023-04-10T10:12:38;3.63;;;3.28;;
79566;SDS011;69030;48.126;7.816;2023-04-10T10:15:08;3.70;;;3.03;;
79566;SDS011;69030;48.126;7.816;2023-04-10T10:17:37;3.58;;;3.25;;
79566;SDS011;69030;48.126;7.816;2023-04-10T10:20:07;4.82;;;4.30;;
79566;SDS011;69030;48.126;7.816;2023-04-10T10:22:34;4.90;;;4.50;;
79566;SDS011;69030;48.126;7.816;2023-04-10T10:25:03;4.05;;;3.75;;
79566;SDS011;69030;48.126;7.816;2023-04-10T10:27:32;3.00;;;2.60;;
79566;SDS011;69030;48.126;7.816;2023-04-10T10:30:01;3.88;;;2.78;;
79566;SDS011;69030;48.126;7.816;2023-04-10T10:32:28;4.03;;;3.72;;
79566;SDS011;69030;48.126;7.816;2023-04-10T10:34:54;3.97;;;2.38;;
79566;SDS011;69030;48.126;7.816;2023-04-10T10:37:21;2.47;;;1.38;;
79566;SDS011;69030;48.126;7.816;2023-04-10T10:40:08;3.13;;;2.83;;
79566;SDS011;69030;48.126;7.816;2023-04-10T10:42:45;3.15;;;2.92;;
79566;SDS011;69030;48.126;7.816;2023-04-10T10:45:18;3.50;;;2.67;;
79566;SDS011;69030;48.126;7.816;2023-04-10T10:47:48;4.30;;;2.97;;
79566;SDS011;69030;48.126;7.816;2023-04-10T10:50:16;3.83;;;3.45;;
79566;SDS011;69030;48.126;7.816;2023-04-10T10:52:46;4.38;;;2.95;;
79566;SDS011;69030;48.126;7.816;2023-04-10T10:57:47;3.08;;;2.78;;
79566;SDS011;69030;48.126;7.816;2023-04-10T11:00:13;3.00;;;2.47;;
79566;SDS011;69030;48.126;7.816;2023-04-10T11:02:39;3.45;;;2.55;;
79566;SDS011;69030;48.126;7.816;2023-04-10T11:05:05;3.80;;;3.50;;
79566;SDS011;69030;48.126;7.816;2023-04-10T11:08:16;2.72;;;2.42;;
79566;SDS011;69030;48.126;7.816;2023-04-10T11:13:26;2.88;;;2.47;;
79566;SDS011;69030;48.126;7.816;2023-04-10T11:15:51;2.55;;;2.35;;
79566;SDS011;69030;48.126;7.816;2023-04-10T11:18:16;4.13;;;3.83;;
79566;SDS011;69030;48.126;7.816;2023-04-10T11:23:34;3.00;;;2.70;;
79566;SDS011;69030;48.126;7.816;2023-04-10T11:26:00;4.55;;;3.67;;
79566;SDS011;69030;48.126;7.816;2023-04-10T11:36:13;3.33;;;3.03;;
79566;SDS011;69030;48.126;7.816;2023-04-10T11:38:42;4.03;;;3.25;;
79566;SDS011;69030;48.126;7.816;2023-04-10T11:41:25;3.05;;;2.75;;
79566;SDS011;69030;48.126;7.816;2023-04-10T11:43:52;3.80;;;3.40;;
79566;SDS011;69030;48.126;7.816;2023-04-10T11:46:17;4.25;;;3.63;;
79566;SDS011;69030;48.126;7.816;2023-04-10T11:48:43;4.00;;;3.60;;
79566;SDS011;69030;48.126;7.816;2023-04-10T11:51:09;3.05;;;2.78;;
79566;SDS011;69030;48.126;7.816;2023-04-10T11:53:35;3.10;;;2.80;;
79566;SDS011;69030;48.126;7.816;2023-04-10T11:56:01;3.30;;;3.00;;
79566;SDS011;69030;48.126;7.816;2023-04-10T11:58:28;4.28;;;3.40;;
79566;SDS011;69030;48.126;7.816;2023-04-10T12:01:01;3.05;;;2.78;;
79566;SDS011;69030;48.126;7.816;2023-04-10T12:03:37;2.78;;;2.55;;
79566;SDS011;69030;48.126;7.816;2023-04-10T12:06:11;3.05;;;1.92;;
79566;SDS011;69030;48.126;7.816;2023-04-10T12:08:38;4.05;;;3.67;;
79566;SDS011;69030;48.126;7.816;2023-04-10T12:11:05;3.35;;;3.00;;
79566;SDS011;69030;48.126;7.816;2023-04-10T12:16:07;3.22;;;2.58;;
79566;SDS011;69030;48.126;7.816;2023-04-10T12:18:33;3.03;;;2.72;;
79566;SDS011;69030;48.126;7.816;2023-04-10T12:20:59;3.13;;;2.83;;
79566;SDS011;69030;48.126;7.816;2023-04-10T12:23:25;3.80;;;3.25;;
79566;SDS011;69030;48.126;7.816;2023-04-10T12:25:52;3.30;;;2.70;;
79566;SDS011;69030;48.126;7.816;2023-04-10T12:28:20;5.28;;;3.08;;
79566;SDS011;69030;48.126;7.816;2023-04-10T12:30:49;2.72;;;2.53;;
79566;SDS011;69030;48.126;7.816;2023-04-10T12:33:22;3.05;;;2.75;;
79566;SDS011;69030;48.126;7.816;2023-04-10T12:35:48;2.55;;;2.35;;
79566;SDS011;69030;48.126;7.816;2023-04-10T12:38:14;3.50;;;2.17;;
79566;SDS011;69030;48.126;7.816;2023-04-10T12:41:00;4.93;;;4.53;;
79566;SDS011;69030;48.126;7.816;2023-04-10T12:43:33;3.90;;;2.80;;
79566;SDS011;69030;48.126;7.816;2023-04-10T12:46:06;2.95;;;2.75;;
79566;SDS011;69030;48.126;7.816;2023-04-10T12:48:33;3.20;;;2.92;;
79566;SDS011;69030;48.126;7.816;2023-04-10T12:50:58;4.13;;;3.83;;
79566;SDS011;69030;48.126;7.816;2023-04-10T12:53:24;3.35;;;2.38;;
79566;SDS011;69030;48.126;7.816;2023-04-10T12:56:03;3.47;;;3.05;;
79566;SDS011;69030;48.126;7.816;2023-04-10T12:58:30;3.35;;;2.95;;
79566;SDS011;69030;48.126;7.816;2023-04-10T13:01:05;3.65;;;3.35;;
79566;SDS011;69030;48.126;7.816;2023-04-10T13:03:37;3.63;;;2.63;;
79566;SDS011;69030;48.126;7.816;2023-04-10T13:06:06;2.63;;;2.42;;
79566;SDS011;69030;48.126;7.816;2023-04-10T13:08:35;2.50;;;2.30;;
79566;SDS011;69030;48.126;7.816;2023-04-10T13:11:01;2.30;;;1.95;;
79566;SDS011;69030;48.126;7.816;2023-04-10T13:13:31;3.00;;;2.65;;
79566;SDS011;69030;48.126;7.816;2023-04-10T13:15:56;2.97;;;2.78;;
79566;SDS011;69030;48.126;7.816;2023-04-10T13:18:25;2.42;;;2.22;;
79566;SDS011;69030;48.126;7.816;2023-04-10T13:20:50;1.67;;;1.45;;
79566;SDS011;69030;48.126;7.816;2023-04-10T13:23:16;2.28;;;2.08;;
79566;SDS011;69030;48.126;7.816;2023-04-10T13:25:41;3.25;;;1.67;;
79566;SDS011;69030;48.126;7.816;2023-04-10T13:28:07;3.33;;;3.00;;
79566;SDS011;69030;48.126;7.816;2023-04-10T13:30:37;2.15;;;1.88;;
79566;SDS011;69030;48.126;7.816;2023-04-10T13:33:04;4.32;;;1.92;;
79566;SDS011;69030;48.126;7.816;2023-04-10T13:35:29;2.88;;;2.67;;
79566;SDS011;69030;48.126;7.816;2023-04-10T13:37:55;2.08;;;1.95;;
79566;SDS011;69030;48.126;7.816;2023-04-10T13:40:20;1.42;;;1.33;;
79566;SDS011;69030;48.126;7.816;2023-04-10T13:42:46;3.10;;;2.90;;
79566;SDS011;69030;48.126;7.816;2023-04-10T13:45:12;1.92;;;1.63;;
79566;SDS011;69030;48.126;7.816;2023-04-10T13:47:37;2.28;;;2.08;;
79566;SDS011;69030;48.126;7.816;2023-04-10T13:50:03;1.77;;;1.55;;
79566;SDS011;69030;48.126;7.816;2023-04-10T13:52:28;2.00;;;1.90;;
79566;SDS011;69030;48.126;7.816;2023-04-10T13:54:53;1.98;;;1.75;;
79566;SDS011;69030;48.126;7.816;2023-04-10T13:57:19;2.00;;;1.90;;
79566;SDS011;69030;48.126;7.816;2023-04-10T13:59:44;2.47;;;2.10;;
79566;SDS011;69030;48.126;7.816;2023-04-10T14:02:10;1.70;;;1.52;;
79566;SDS011;69030;48.126;7.816;2023-04-10T14:04:35;1.92;;;1.48;;
79566;SDS011;69030;48.126;7.816;2023-04-10T14:07:00;2.17;;;1.77;;
79566;SDS011;69030;48.126;7.816;2023-04-10T14:09:26;2.15;;;1.95;;
79566;SDS011;69030;48.126;7.816;2023-04-10T14:11:52;2.55;;;2.30;;
79566;SDS011;69030;48.126;7.816;2023-04-10T14:14:17;2.90;;;2.17;;
79566;SDS011;69030;48.126;7.816;2023-04-10T14:16:43;2.53;;;2.00;;
79566;SDS011;69030;48.126;7.816;2023-04-10T14:19:08;1.92;;;1.83;;
79566;SDS011;69030;48.126;7.816;2023-04-10T14:21:35;3.22;;;2.85;;
79566;SDS011;69030;48.126;7.816;2023-04-10T14:24:01;2.17;;;1.95;;
79566;SDS011;69030;48.126;7.816;2023-04-10T14:26:26;1.55;;;1.33;;
79566;SDS011;69030;48.126;7.816;2023-04-10T14:28:52;1.98;;;1.77;;
79566;SDS011;69030;48.126;7.816;2023-04-10T14:31:17;2.03;;;1.83;;
79566;SDS011;69030;48.126;7.816;2023-04-10T14:33:43;4.60;;;2.15;;
79566;SDS011;69030;48.126;7.816;2023-04-10T14:36:09;3.17;;;1.92;;
79566;SDS011;69030;48.126;7.816;2023-04-10T14:38:35;2.75;;;2.35;;
79566;SDS011;69030;48.126;7.816;2023-04-10T14:41:03;2.05;;;1.77;;
79566;SDS011;69030;48.126;7.816;2023-04-10T14:43:29;2.40;;;2.20;;
79566;SDS011;69030;48.126;7.816;2023-04-10T14:45:55;1.92;;;1.05;;
79566;SDS011;69030;48.126;7.816;2023-04-10T14:48:20;5.68;;;2.40;;
79566;SDS011;69030;48.126;7.816;2023-04-10T14:50:46;3.22;;;2.92;;
79566;SDS011;69030;48.126;7.816;2023-04-10T14:53:13;2.30;;;2.00;;
79566;SDS011;69030;48.126;7.816;2023-04-10T14:55:38;3.55;;;3.25;;
79566;SDS011;69030;48.126;7.816;2023-04-10T14:58:04;2.10;;;1.90;;
79566;SDS011;69030;48.126;7.816;2023-04-10T15:00:31;2.40;;;1.90;;
79566;SDS011;69030;48.126;7.816;2023-04-10T15:02:57;2.47;;;2.28;;
79566;SDS011;69030;48.126;7.816;2023-04-10T15:05:23;2.80;;;1.60;;
79566;SDS011;69030;48.126;7.816;2023-04-10T15:07:49;2.45;;;2.25;;
79566;SDS011;69030;48.126;7.816;2023-04-10T15:10:15;2.65;;;2.10;;
79566;SDS011;69030;48.126;7.816;2023-04-10T15:12:40;2.17;;;1.98;;
79566;SDS011;69030;48.126;7.816;2023-04-10T15:15:06;3.75;;;2.40;;
79566;SDS011;69030;48.126;7.816;2023-04-10T15:17:32;3.15;;;2.55;;
79566;SDS011;69030;48.126;7.816;2023-04-10T15:19:57;3.42;;;3.05;;
79566;SDS011;69030;48.126;7.816;2023-04-10T15:22:23;2.38;;;1.92;;